sensor_id;sensor_type;location;lat;lon;timestamp;temperature;humidity
23497;DHT22;11925;48.122;11.560;2023-06-04T00:00:52;16.50;99.90
23497;DHT22;11925;48.122;11.560;2023-06-04T00:03:20;16.50;99.90
23497;DHT22;11925;48.122;11.560;2023-06-04T00:05:49;16.40;99.90
23497;DHT22;11925;48.122;11.560;2023-06-04T00:08:17;16.50;99.90
23497;DHT22;11925;48.122;11.560;2023-06-04T00:10:45;16.50;99.90
23497;DHT22;11925;48.122;11.560;2023-06-04T00:13:13;16.50;99.90
23497;DHT22;11925;48.122;11.560;2023-06-04T00:15:43;16.40;99.90
23497;DHT22;11925;48.122;11.560;2023-06-04T00:18:12;16.40;99.90
23497;DHT22;11925;48.122;11.560;2023-06-04T00:20:40;16.40;99.90
23497;DHT22;11925;48.122;11.560;2023-06-04T00:23:09;16.40;99.90
23497;DHT22;11925;48.122;11.560;2023-06-04T00:25:37;16.40;99.90
23497;DHT22;11925;48.122;11.560;2023-06-04T00:28:06;16.40;99.90
23497;DHT22;11925;48.122;11.560;2023-06-04T00:30:34;16.40;99.90
23497;DHT22;11925;48.122;11.560;2023-06-04T00:33:04;16.40;99.90
23497;DHT22;11925;48.122;11.560;2023-06-04T00:35:32;16.40;99.90
23497;DHT22;11925;48.122;11.560;2023-06-04T00:38:00;16.40;99.90
23497;DHT22;11925;48.122;11.560;2023-06-04T00:40:29;16.40;99.90
23497;DHT22;11925;48.122;11.560;2023-06-04T00:42:57;16.40;99.90
23497;DHT22;11925;48.122;11.560;2023-06-04T00:45:25;16.40;99.90
23497;DHT22;11925;48.122;11.560;2023-06-04T00:47:58;16.40;99.90
23497;DHT22;11925;48.122;11.560;2023-06-04T00:50:28;16.40;99.90
23497;DHT22;11925;48.122;11.560;2023-06-04T00:52:58;16.40;99.90
23497;DHT22;11925;48.122;11.560;2023-06-04T00:55:27;16.40;99.90
23497;DHT22;11925;48.122;11.560;2023-06-04T00:57:55;16.40;99.90
23497;DHT22;11925;48.122;11.560;2023-06-04T01:00:24;16.30;99.90
23497;DHT22;11925;48.122;11.560;2023-06-04T01:02:52;16.40;99.90
23497;DHT22;11925;48.122;11.560;2023-06-04T01:05:29;16.30;99.90
23497;DHT22;11925;48.122;11.560;2023-06-04T01:08:01;16.30;99.90
23497;DHT22;11925;48.122;11.560;2023-06-04T01:10:29;16.30;99.90
23497;DHT22;11925;48.122;11.560;2023-06-04T01:12:58;16.30;99.90
23497;DHT22;11925;48.122;11.560;2023-06-04T01:15:26;16.30;99.90
23497;DHT22;11925;48.122;11.560;2023-06-04T01:17:58;16.30;99.90
23497;DHT22;11925;48.122;11.560;2023-06-04T01:20:36;16.30;99.60
23497;DHT22;11925;48.122;11.560;2023-06-04T01:23:19;16.30;99.80
23497;DHT22;11925;48.122;11.560;2023-06-04T01:25:54;16.30;99.20
23497;DHT22;11925;48.122;11.560;2023-06-04T01:28:24;16.30;98.80
23497;DHT22;11925;48.122;11.560;2023-06-04T01:30:54;16.20;98.80
23497;DHT22;11925;48.122;11.560;2023-06-04T01:33:23;16.20;98.40
23497;DHT22;11925;48.122;11.560;2023-06-04T01:35:53;16.20;98.80
23497;DHT22;11925;48.122;11.560;2023-06-04T01:38:21;16.20;98.00
23497;DHT22;11925;48.122;11.560;2023-06-04T01:40:50;16.20;98.30
23497;DHT22;11925;48.122;11.560;2023-06-04T01:43:23;16.20;98.30
23497;DHT22;11925;48.122;11.560;2023-06-04T01:45:51;16.30;98.30
23497;DHT22;11925;48.122;11.560;2023-06-04T01:48:21;16.20;97.90
23497;DHT22;11925;48.122;11.560;2023-06-04T01:50:50;16.20;97.80
23497;DHT22;11925;48.122;11.560;2023-06-04T01:53:19;16.20;97.40
23497;DHT22;11925;48.122;11.560;2023-06-04T01:55:49;16.20;97.40
23497;DHT22;11925;48.122;11.560;2023-06-04T01:58:18;16.10;97.50
23497;DHT22;11925;48.122;11.560;2023-06-04T02:00:53;16.20;97.50
23497;DHT22;11925;48.122;11.560;2023-06-04T02:03:23;16.10;97.20
23497;DHT22;11925;48.122;11.560;2023-06-04T02:05:51;16.10;97.30
23497;DHT22;11925;48.122;11.560;2023-06-04T02:08:21;16.10;97.50
23497;DHT22;11925;48.122;11.560;2023-06-04T02:10:54;16.10;97.00
23497;DHT22;11925;48.122;11.560;2023-06-04T02:13:23;16.10;97.30
23497;DHT22;11925;48.122;11.560;2023-06-04T02:15:51;16.10;97.30
23497;DHT22;11925;48.122;11.560;2023-06-04T02:18:20;16.10;97.20
23497;DHT22;11925;48.122;11.560;2023-06-04T02:20:50;16.10;97.00
23497;DHT22;11925;48.122;11.560;2023-06-04T02:23:21;16.10;96.90
23497;DHT22;11925;48.122;11.560;2023-06-04T02:25:49;16.10;96.90
23497;DHT22;11925;48.122;11.560;2023-06-04T02:28:17;16.00;97.10
23497;DHT22;11925;48.122;11.560;2023-06-04T02:30:46;16.00;97.10
23497;DHT22;11925;48.122;11.560;2023-06-04T02:33:14;16.00;96.80
23497;DHT22;11925;48.122;11.560;2023-06-04T02:35:43;16.00;96.60
23497;DHT22;11925;48.122;11.560;2023-06-04T02:38:12;16.00;96.90
23497;DHT22;11925;48.122;11.560;2023-06-04T02:40:42;16.00;97.20
23497;DHT22;11925;48.122;11.560;2023-06-04T02:43:11;16.00;97.20
23497;DHT22;11925;48.122;11.560;2023-06-04T02:45:39;16.00;97.20
23497;DHT22;11925;48.122;11.560;2023-06-04T02:48:07;16.00;97.60
23497;DHT22;11925;48.122;11.560;2023-06-04T02:50:36;15.90;97.50
23497;DHT22;11925;48.122;11.560;2023-06-04T02:53:05;15.90;97.70
23497;DHT22;11925;48.122;11.560;2023-06-04T02:55:34;15.90;97.90
23497;DHT22;11925;48.122;11.560;2023-06-04T02:58:04;15.90;98.20
23497;DHT22;11925;48.122;11.560;2023-06-04T03:00:32;15.90;98.20
23497;DHT22;11925;48.122;11.560;2023-06-04T03:03:01;15.80;98.20
23497;DHT22;11925;48.122;11.560;2023-06-04T03:05:30;15.80;98.20
23497;DHT22;11925;48.122;11.560;2023-06-04T03:08:01;15.80;98.30
23497;DHT22;11925;48.122;11.560;2023-06-04T03:10:29;15.80;98.40
23497;DHT22;11925;48.122;11.560;2023-06-04T03:12:58;15.70;98.40
23497;DHT22;11925;48.122;11.560;2023-06-04T03:15:28;15.70;98.30
23497;DHT22;11925;48.122;11.560;2023-06-04T03:17:56;15.70;98.40
23497;DHT22;11925;48.122;11.560;2023-06-04T03:20:25;15.70;98.50
23497;DHT22;11925;48.122;11.560;2023-06-04T03:22:54;15.90;98.50
23497;DHT22;11925;48.122;11.560;2023-06-04T03:25:22;15.70;98.60
23497;DHT22;11925;48.122;11.560;2023-06-04T03:27:51;15.70;98.70
23497;DHT22;11925;48.122;11.560;2023-06-04T03:30:19;15.70;98.80
23497;DHT22;11925;48.122;11.560;2023-06-04T03:32:57;15.70;98.80
23497;DHT22;11925;48.122;11.560;2023-06-04T03:35:26;15.70;98.80
23497;DHT22;11925;48.122;11.560;2023-06-04T03:37:54;15.60;98.80
23497;DHT22;11925;48.122;11.560;2023-06-04T03:40:23;15.60;99.00
23497;DHT22;11925;48.122;11.560;2023-06-04T03:42:51;15.60;99.00
23497;DHT22;11925;48.122;11.560;2023-06-04T03:45:22;15.60;99.20
23497;DHT22;11925;48.122;11.560;2023-06-04T03:47:50;15.60;99.30
23497;DHT22;11925;48.122;11.560;2023-06-04T03:50:20;15.60;99.30
23497;DHT22;11925;48.122;11.560;2023-06-04T03:52:51;15.60;99.40
23497;DHT22;11925;48.122;11.560;2023-06-04T03:55:19;15.60;99.50
23497;DHT22;11925;48.122;11.560;2023-06-04T03:57:49;15.60;99.50
23497;DHT22;11925;48.122;11.560;2023-06-04T04:00:18;15.60;99.50
23497;DHT22;11925;48.122;11.560;2023-06-04T04:02:50;15.50;99.40
23497;DHT22;11925;48.122;11.560;2023-06-04T04:05:27;15.50;99.40
23497;DHT22;11925;48.122;11.560;2023-06-04T04:07:56;15.50;99.40
23497;DHT22;11925;48.122;11.560;2023-06-04T04:10:28;15.50;99.40
23497;DHT22;11925;48.122;11.560;2023-06-04T04:12:57;15.50;99.50
23497;DHT22;11925;48.122;11.560;2023-06-04T04:15:28;15.50;99.50
23497;DHT22;11925;48.122;11.560;2023-06-04T04:17:57;15.50;99.60
23497;DHT22;11925;48.122;11.560;2023-06-04T04:20:26;15.50;99.60
23497;DHT22;11925;48.122;11.560;2023-06-04T04:23:00;15.50;99.70
23497;DHT22;11925;48.122;11.560;2023-06-04T04:25:30;15.50;99.70
23497;DHT22;11925;48.122;11.560;2023-06-04T04:28:02;15.50;99.80
23497;DHT22;11925;48.122;11.560;2023-06-04T04:30:34;15.50;99.80
23497;DHT22;11925;48.122;11.560;2023-06-04T04:33:03;15.50;99.90
23497;DHT22;11925;48.122;11.560;2023-06-04T04:35:39;15.50;99.90
23497;DHT22;11925;48.122;11.560;2023-06-04T04:38:09;15.50;99.90
23497;DHT22;11925;48.122;11.560;2023-06-04T04:40:46;15.50;99.90
23497;DHT22;11925;48.122;11.560;2023-06-04T04:43:16;15.60;99.90
23497;DHT22;11925;48.122;11.560;2023-06-04T04:45:44;15.50;99.90
23497;DHT22;11925;48.122;11.560;2023-06-04T04:48:12;15.60;99.90
23497;DHT22;11925;48.122;11.560;2023-06-04T04:50:42;15.60;99.90
23497;DHT22;11925;48.122;11.560;2023-06-04T04:53:10;15.60;99.90
23497;DHT22;11925;48.122;11.560;2023-06-04T04:55:39;15.60;99.90
23497;DHT22;11925;48.122;11.560;2023-06-04T04:58:07;15.60;99.90
23497;DHT22;11925;48.122;11.560;2023-06-04T05:00:36;15.60;99.90
23497;DHT22;11925;48.122;11.560;2023-06-04T05:03:05;15.60;99.90
23497;DHT22;11925;48.122;11.560;2023-06-04T05:05:33;15.60;99.90
23497;DHT22;11925;48.122;11.560;2023-06-04T05:08:05;15.70;99.90
23497;DHT22;11925;48.122;11.560;2023-06-04T05:10:38;15.60;99.90
23497;DHT22;11925;48.122;11.560;2023-06-04T05:13:08;15.70;99.90
23497;DHT22;11925;48.122;11.560;2023-06-04T05:15:59;15.70;99.90
23497;DHT22;11925;48.122;11.560;2023-06-04T05:18:37;15.70;99.90
23497;DHT22;11925;48.122;11.560;2023-06-04T05:21:10;15.70;99.70
23497;DHT22;11925;48.122;11.560;2023-06-04T05:23:46;15.70;99.20
23497;DHT22;11925;48.122;11.560;2023-06-04T05:26:18;15.80;99.00
23497;DHT22;11925;48.122;11.560;2023-06-04T05:28:50;15.80;99.40
23497;DHT22;11925;48.122;11.560;2023-06-04T05:31:19;15.80;99.30
23497;DHT22;11925;48.122;11.560;2023-06-04T05:33:50;15.80;99.40
23497;DHT22;11925;48.122;11.560;2023-06-04T05:36:21;15.80;99.00
23497;DHT22;11925;48.122;11.560;2023-06-04T05:38:56;15.80;98.70
23497;DHT22;11925;48.122;11.560;2023-06-04T05:41:50;15.90;99.80
23497;DHT22;11925;48.122;11.560;2023-06-04T05:44:19;15.90;99.90
23497;DHT22;11925;48.122;11.560;2023-06-04T05:46:48;15.90;99.90
23497;DHT22;11925;48.122;11.560;2023-06-04T05:49:16;15.90;99.90
23497;DHT22;11925;48.122;11.560;2023-06-04T05:51:46;15.90;99.90
23497;DHT22;11925;48.122;11.560;2023-06-04T05:54:17;15.90;99.90
23497;DHT22;11925;48.122;11.560;2023-06-04T05:56:47;15.90;99.30
23497;DHT22;11925;48.122;11.560;2023-06-04T05:59:15;15.90;99.00
23497;DHT22;11925;48.122;11.560;2023-06-04T06:01:44;15.90;99.80
23497;DHT22;11925;48.122;11.560;2023-06-04T06:04:13;15.90;99.40
23497;DHT22;11925;48.122;11.560;2023-06-04T06:06:43;16.00;99.80
23497;DHT22;11925;48.122;11.560;2023-06-04T06:09:16;15.90;99.00
23497;DHT22;11925;48.122;11.560;2023-06-04T06:11:45;15.90;99.90
23497;DHT22;11925;48.122;11.560;2023-06-04T06:14:14;16.00;99.90
23497;DHT22;11925;48.122;11.560;2023-06-04T06:16:43;15.90;99.90
23497;DHT22;11925;48.122;11.560;2023-06-04T06:19:11;15.90;99.90
23497;DHT22;11925;48.122;11.560;2023-06-04T06:21:40;15.90;99.90
23497;DHT22;11925;48.122;11.560;2023-06-04T06:24:08;15.90;99.90
23497;DHT22;11925;48.122;11.560;2023-06-04T06:26:38;15.90;99.20
23497;DHT22;11925;48.122;11.560;2023-06-04T06:29:09;15.90;99.60
23497;DHT22;11925;48.122;11.560;2023-06-04T06:31:38;16.00;99.60
23497;DHT22;11925;48.122;11.560;2023-06-04T06:34:06;16.00;99.90
23497;DHT22;11925;48.122;11.560;2023-06-04T06:36:34;15.90;99.90
23497;DHT22;11925;48.122;11.560;2023-06-04T06:39:03;16.00;99.90
23497;DHT22;11925;48.122;11.560;2023-06-04T06:41:31;16.00;99.90
23497;DHT22;11925;48.122;11.560;2023-06-04T06:44:01;16.00;99.90
23497;DHT22;11925;48.122;11.560;2023-06-04T06:46:29;16.00;99.90
23497;DHT22;11925;48.122;11.560;2023-06-04T06:48:58;16.00;99.90
23497;DHT22;11925;48.122;11.560;2023-06-04T06:51:26;16.00;99.90
23497;DHT22;11925;48.122;11.560;2023-06-04T06:53:54;16.00;99.90
23497;DHT22;11925;48.122;11.560;2023-06-04T06:56:23;16.00;99.90
23497;DHT22;11925;48.122;11.560;2023-06-04T06:58:51;16.00;99.90
23497;DHT22;11925;48.122;11.560;2023-06-04T07:01:21;16.00;99.90
23497;DHT22;11925;48.122;11.560;2023-06-04T07:03:50;16.00;99.90
23497;DHT22;11925;48.122;11.560;2023-06-04T07:06:18;16.00;99.90
23497;DHT22;11925;48.122;11.560;2023-06-04T07:08:47;16.00;99.90
23497;DHT22;11925;48.122;11.560;2023-06-04T07:11:16;16.00;99.90
23497;DHT22;11925;48.122;11.560;2023-06-04T07:13:44;16.00;99.90
23497;DHT22;11925;48.122;11.560;2023-06-04T07:16:13;16.00;99.90
23497;DHT22;11925;48.122;11.560;2023-06-04T07:18:42;16.00;99.90
23497;DHT22;11925;48.122;11.560;2023-06-04T07:21:11;16.00;99.90
23497;DHT22;11925;48.122;11.560;2023-06-04T07:23:39;16.00;99.90
23497;DHT22;11925;48.122;11.560;2023-06-04T07:26:08;16.00;99.90
23497;DHT22;11925;48.122;11.560;2023-06-04T07:28:36;16.10;99.90
23497;DHT22;11925;48.122;11.560;2023-06-04T07:31:04;16.00;99.90
23497;DHT22;11925;48.122;11.560;2023-06-04T07:33:33;16.10;99.90
23497;DHT22;11925;48.122;11.560;2023-06-04T07:36:12;16.10;99.90
23497;DHT22;11925;48.122;11.560;2023-06-04T07:38:40;16.10;99.90
23497;DHT22;11925;48.122;11.560;2023-06-04T07:41:09;16.00;99.90
23497;DHT22;11925;48.122;11.560;2023-06-04T07:43:38;16.10;99.90
23497;DHT22;11925;48.122;11.560;2023-06-04T07:46:06;16.00;99.90
23497;DHT22;11925;48.122;11.560;2023-06-04T07:48:34;16.00;99.90
23497;DHT22;11925;48.122;11.560;2023-06-04T07:51:03;16.00;99.90
23497;DHT22;11925;48.122;11.560;2023-06-04T07:53:33;16.00;99.90
23497;DHT22;11925;48.122;11.560;2023-06-04T07:56:03;16.00;99.90
23497;DHT22;11925;48.122;11.560;2023-06-04T07:58:31;16.00;99.90
23497;DHT22;11925;48.122;11.560;2023-06-04T08:00:59;16.00;99.90
23497;DHT22;11925;48.122;11.560;2023-06-04T08:03:28;16.00;99.90
23497;DHT22;11925;48.122;11.560;2023-06-04T08:05:57;16.00;99.90
23497;DHT22;11925;48.122;11.560;2023-06-04T08:08:25;16.00;99.90
23497;DHT22;11925;48.122;11.560;2023-06-04T08:10:54;16.00;99.90
23497;DHT22;11925;48.122;11.560;2023-06-04T08:13:23;16.00;99.90
23497;DHT22;11925;48.122;11.560;2023-06-04T08:15:51;16.00;99.90
23497;DHT22;11925;48.122;11.560;2023-06-04T08:18:20;16.00;99.90
23497;DHT22;11925;48.122;11.560;2023-06-04T08:20:48;16.00;99.90
23497;DHT22;11925;48.122;11.560;2023-06-04T08:23:16;16.10;99.90
23497;DHT22;11925;48.122;11.560;2023-06-04T08:25:45;16.00;99.90
23497;DHT22;11925;48.122;11.560;2023-06-04T08:28:14;16.00;99.90
23497;DHT22;11925;48.122;11.560;2023-06-04T08:30:43;16.00;99.90
23497;DHT22;11925;48.122;11.560;2023-06-04T08:33:12;16.00;99.90
23497;DHT22;11925;48.122;11.560;2023-06-04T08:35:40;16.00;99.90
23497;DHT22;11925;48.122;11.560;2023-06-04T08:38:09;16.00;99.90
23497;DHT22;11925;48.122;11.560;2023-06-04T08:40:37;16.00;99.90
23497;DHT22;11925;48.122;11.560;2023-06-04T08:43:05;16.00;99.90
23497;DHT22;11925;48.122;11.560;2023-06-04T08:45:39;16.00;99.90
23497;DHT22;11925;48.122;11.560;2023-06-04T08:48:09;16.10;99.90
23497;DHT22;11925;48.122;11.560;2023-06-04T08:50:39;16.10;99.90
23497;DHT22;11925;48.122;11.560;2023-06-04T08:53:14;16.10;99.90
23497;DHT22;11925;48.122;11.560;2023-06-04T08:55:43;16.10;99.90
23497;DHT22;11925;48.122;11.560;2023-06-04T08:58:12;16.10;99.90
23497;DHT22;11925;48.122;11.560;2023-06-04T09:00:43;16.00;99.90
23497;DHT22;11925;48.122;11.560;2023-06-04T09:03:13;16.10;99.90
23497;DHT22;11925;48.122;11.560;2023-06-04T09:05:43;16.10;99.90
23497;DHT22;11925;48.122;11.560;2023-06-04T09:08:17;16.10;99.90
23497;DHT22;11925;48.122;11.560;2023-06-04T09:10:46;16.20;99.90
23497;DHT22;11925;48.122;11.560;2023-06-04T09:13:19;16.10;99.90
23497;DHT22;11925;48.122;11.560;2023-06-04T09:16:01;16.10;99.90
23497;DHT22;11925;48.122;11.560;2023-06-04T09:18:30;16.10;99.90
23497;DHT22;11925;48.122;11.560;2023-06-04T09:21:03;16.10;99.90
23497;DHT22;11925;48.122;11.560;2023-06-04T09:23:35;16.10;99.90
23497;DHT22;11925;48.122;11.560;2023-06-04T09:26:07;16.10;99.90
23497;DHT22;11925;48.122;11.560;2023-06-04T09:28:39;16.10;99.90
23497;DHT22;11925;48.122;11.560;2023-06-04T09:31:14;16.10;99.90
23497;DHT22;11925;48.122;11.560;2023-06-04T09:33:44;16.10;99.90
23497;DHT22;11925;48.122;11.560;2023-06-04T09:36:13;16.10;99.90
23497;DHT22;11925;48.122;11.560;2023-06-04T09:38:42;16.10;99.90
23497;DHT22;11925;48.122;11.560;2023-06-04T09:41:16;16.10;99.90
23497;DHT22;11925;48.122;11.560;2023-06-04T09:43:46;16.10;99.90
23497;DHT22;11925;48.122;11.560;2023-06-04T09:46:17;16.10;99.90
23497;DHT22;11925;48.122;11.560;2023-06-04T09:48:45;16.00;99.90
23497;DHT22;11925;48.122;11.560;2023-06-04T09:51:15;16.10;99.90
23497;DHT22;11925;48.122;11.560;2023-06-04T09:53:54;16.10;99.90
23497;DHT22;11925;48.122;11.560;2023-06-04T09:56:23;16.10;99.90
23497;DHT22;11925;48.122;11.560;2023-06-04T09:58:55;16.10;99.90
23497;DHT22;11925;48.122;11.560;2023-06-04T10:01:26;16.10;99.90
23497;DHT22;11925;48.122;11.560;2023-06-04T10:03:55;16.10;99.90
23497;DHT22;11925;48.122;11.560;2023-06-04T10:06:26;16.10;99.90
23497;DHT22;11925;48.122;11.560;2023-06-04T10:08:56;16.10;99.90
23497;DHT22;11925;48.122;11.560;2023-06-04T10:11:30;16.20;99.90
23497;DHT22;11925;48.122;11.560;2023-06-04T10:14:03;16.10;99.90
23497;DHT22;11925;48.122;11.560;2023-06-04T10:16:37;16.10;99.90
23497;DHT22;11925;48.122;11.560;2023-06-04T10:19:07;16.10;99.90
23497;DHT22;11925;48.122;11.560;2023-06-04T10:21:36;16.10;99.90
23497;DHT22;11925;48.122;11.560;2023-06-04T10:24:05;16.10;99.90
23497;DHT22;11925;48.122;11.560;2023-06-04T10:26:34;16.20;99.90
23497;DHT22;11925;48.122;11.560;2023-06-04T10:29:03;16.10;99.90
23497;DHT22;11925;48.122;11.560;2023-06-04T10:31:33;16.10;99.90
23497;DHT22;11925;48.122;11.560;2023-06-04T10:34:03;16.10;99.90
23497;DHT22;11925;48.122;11.560;2023-06-04T10:36:42;16.10;99.90
23497;DHT22;11925;48.122;11.560;2023-06-04T10:39:11;16.10;99.90
23497;DHT22;11925;48.122;11.560;2023-06-04T10:41:39;16.20;99.90
23497;DHT22;11925;48.122;11.560;2023-06-04T10:44:08;16.20;99.90
23497;DHT22;11925;48.122;11.560;2023-06-04T10:46:40;16.20;99.90
23497;DHT22;11925;48.122;11.560;2023-06-04T10:49:10;16.20;99.90
23497;DHT22;11925;48.122;11.560;2023-06-04T10:51:39;16.10;99.90
23497;DHT22;11925;48.122;11.560;2023-06-04T10:54:07;16.10;99.90
23497;DHT22;11925;48.122;11.560;2023-06-04T10:56:36;16.20;99.90
23497;DHT22;11925;48.122;11.560;2023-06-04T10:59:15;16.20;99.90
23497;DHT22;11925;48.122;11.560;2023-06-04T11:01:44;16.20;99.90
23497;DHT22;11925;48.122;11.560;2023-06-04T11:04:24;16.20;99.90
23497;DHT22;11925;48.122;11.560;2023-06-04T11:07:03;16.20;99.90
23497;DHT22;11925;48.122;11.560;2023-06-04T11:09:33;16.20;99.90
23497;DHT22;11925;48.122;11.560;2023-06-04T11:12:04;16.20;99.90
23497;DHT22;11925;48.122;11.560;2023-06-04T11:14:32;16.20;99.90
23497;DHT22;11925;48.122;11.560;2023-06-04T11:17:09;16.20;99.90
23497;DHT22;11925;48.122;11.560;2023-06-04T11:19:39;16.20;99.90
23497;DHT22;11925;48.122;11.560;2023-06-04T11:22:10;16.20;99.90
23497;DHT22;11925;48.122;11.560;2023-06-04T11:24:39;16.20;99.90
23497;DHT22;11925;48.122;11.560;2023-06-04T11:27:07;16.20;99.90
23497;DHT22;11925;48.122;11.560;2023-06-04T11:29:43;16.20;99.90
23497;DHT22;11925;48.122;11.560;2023-06-04T11:32:21;16.20;99.90
23497;DHT22;11925;48.122;11.560;2023-06-04T11:34:51;16.10;99.90
23497;DHT22;11925;48.122;11.560;2023-06-04T11:37:30;16.20;99.90
23497;DHT22;11925;48.122;11.560;2023-06-04T11:40:00;16.20;99.90
23497;DHT22;11925;48.122;11.560;2023-06-04T11:42:29;16.20;99.90
23497;DHT22;11925;48.122;11.560;2023-06-04T11:44:58;16.20;99.90
23497;DHT22;11925;48.122;11.560;2023-06-04T11:47:27;16.20;99.90
23497;DHT22;11925;48.122;11.560;2023-06-04T11:49:57;16.20;99.90
23497;DHT22;11925;48.122;11.560;2023-06-04T11:52:27;16.20;99.90
23497;DHT22;11925;48.122;11.560;2023-06-04T11:54:56;16.20;99.90
23497;DHT22;11925;48.122;11.560;2023-06-04T11:57:24;16.20;99.90
23497;DHT22;11925;48.122;11.560;2023-06-04T11:59:52;16.20;99.90
23497;DHT22;11925;48.122;11.560;2023-06-04T12:02:21;16.20;99.90
23497;DHT22;11925;48.122;11.560;2023-06-04T12:04:50;16.20;99.90
23497;DHT22;11925;48.122;11.560;2023-06-04T12:07:21;16.20;99.90
23497;DHT22;11925;48.122;11.560;2023-06-04T12:09:51;16.20;99.90
23497;DHT22;11925;48.122;11.560;2023-06-04T12:12:22;16.10;99.90
23497;DHT22;11925;48.122;11.560;2023-06-04T12:14:57;16.20;99.90
23497;DHT22;11925;48.122;11.560;2023-06-04T12:17:26;16.20;99.90
23497;DHT22;11925;48.122;11.560;2023-06-04T12:19:54;16.20;99.90
23497;DHT22;11925;48.122;11.560;2023-06-04T12:22:25;16.20;99.90
23497;DHT22;11925;48.122;11.560;2023-06-04T12:24:56;16.10;99.90
23497;DHT22;11925;48.122;11.560;2023-06-04T12:27:27;16.20;99.90
23497;DHT22;11925;48.122;11.560;2023-06-04T12:29:57;16.20;99.90
23497;DHT22;11925;48.122;11.560;2023-06-04T12:32:25;16.20;99.90
23497;DHT22;11925;48.122;11.560;2023-06-04T12:34:54;16.20;99.90
23497;DHT22;11925;48.122;11.560;2023-06-04T12:37:24;16.20;99.90
23497;DHT22;11925;48.122;11.560;2023-06-04T12:39:54;16.20;99.90
23497;DHT22;11925;48.122;11.560;2023-06-04T12:42:23;16.20;99.90
23497;DHT22;11925;48.122;11.560;2023-06-04T12:44:51;16.20;99.90
23497;DHT22;11925;48.122;11.560;2023-06-04T12:47:19;16.20;99.90
23497;DHT22;11925;48.122;11.560;2023-06-04T12:49:48;16.20;99.90
23497;DHT22;11925;48.122;11.560;2023-06-04T12:52:17;16.20;99.90
23497;DHT22;11925;48.122;11.560;2023-06-04T12:54:48;16.20;99.90
23497;DHT22;11925;48.122;11.560;2023-06-04T12:57:16;16.20;99.90
23497;DHT22;11925;48.122;11.560;2023-06-04T12:59:45;16.20;99.90
23497;DHT22;11925;48.122;11.560;2023-06-04T13:02:13;16.20;99.90
23497;DHT22;11925;48.122;11.560;2023-06-04T13:04:42;16.20;99.90
23497;DHT22;11925;48.122;11.560;2023-06-04T13:07:12;16.20;99.90
23497;DHT22;11925;48.122;11.560;2023-06-04T13:09:41;16.20;99.90
23497;DHT22;11925;48.122;11.560;2023-06-04T13:12:11;16.20;99.90
23497;DHT22;11925;48.122;11.560;2023-06-04T13:14:40;16.20;99.90
23497;DHT22;11925;48.122;11.560;2023-06-04T13:17:09;16.20;99.90
23497;DHT22;11925;48.122;11.560;2023-06-04T13:19:48;16.20;99.90
23497;DHT22;11925;48.122;11.560;2023-06-04T13:22:17;16.20;99.90
23497;DHT22;11925;48.122;11.560;2023-06-04T13:24:45;16.20;99.90
23497;DHT22;11925;48.122;11.560;2023-06-04T13:27:15;16.20;99.90
23497;DHT22;11925;48.122;11.560;2023-06-04T13:29:43;16.20;99.90
23497;DHT22;11925;48.122;11.560;2023-06-04T13:32:11;16.20;99.90
23497;DHT22;11925;48.122;11.560;2023-06-04T13:34:40;16.20;99.90
23497;DHT22;11925;48.122;11.560;2023-06-04T13:37:08;16.20;99.90
23497;DHT22;11925;48.122;11.560;2023-06-04T13:39:39;16.20;99.90
23497;DHT22;11925;48.122;11.560;2023-06-04T13:42:07;16.20;99.90
23497;DHT22;11925;48.122;11.560;2023-06-04T13:44:37;16.20;99.90
23497;DHT22;11925;48.122;11.560;2023-06-04T13:47:05;16.20;99.90
23497;DHT22;11925;48.122;11.560;2023-06-04T13:49:34;16.20;99.90
23497;DHT22;11925;48.122;11.560;2023-06-04T13:52:02;16.20;99.90
23497;DHT22;11925;48.122;11.560;2023-06-04T13:54:31;16.20;99.90
23497;DHT22;11925;48.122;11.560;2023-06-04T13:57:01;16.20;99.90
23497;DHT22;11925;48.122;11.560;2023-06-04T13:59:30;16.20;99.90
23497;DHT22;11925;48.122;11.560;2023-06-04T14:02:00;16.20;99.90
23497;DHT22;11925;48.122;11.560;2023-06-04T14:04:29;16.30;99.90
23497;DHT22;11925;48.122;11.560;2023-06-04T14:06:57;16.30;99.90
23497;DHT22;11925;48.122;11.560;2023-06-04T14:09:26;16.30;99.90
23497;DHT22;11925;48.122;11.560;2023-06-04T14:11:54;16.20;99.90
23497;DHT22;11925;48.122;11.560;2023-06-04T14:14:22;16.20;99.90
23497;DHT22;11925;48.122;11.560;2023-06-04T14:16:51;16.20;99.90
23497;DHT22;11925;48.122;11.560;2023-06-04T14:19:26;16.20;99.90
23497;DHT22;11925;48.122;11.560;2023-06-04T14:21:54;16.20;99.90
23497;DHT22;11925;48.122;11.560;2023-06-04T14:24:22;16.20;99.90
23497;DHT22;11925;48.122;11.560;2023-06-04T14:26:51;16.20;99.90
23497;DHT22;11925;48.122;11.560;2023-06-04T14:29:19;16.20;99.90
23497;DHT22;11925;48.122;11.560;2023-06-04T14:31:47;16.20;99.90
23497;DHT22;11925;48.122;11.560;2023-06-04T14:34:16;16.20;99.90
23497;DHT22;11925;48.122;11.560;2023-06-04T14:36:46;16.20;99.90
23497;DHT22;11925;48.122;11.560;2023-06-04T14:39:14;16.20;99.90
23497;DHT22;11925;48.122;11.560;2023-06-04T14:41:43;16.20;99.90
23497;DHT22;11925;48.122;11.560;2023-06-04T14:44:11;16.20;99.90
23497;DHT22;11925;48.122;11.560;2023-06-04T14:46:39;16.20;99.90
23497;DHT22;11925;48.122;11.560;2023-06-04T14:49:08;16.20;99.90
23497;DHT22;11925;48.122;11.560;2023-06-04T14:51:36;16.20;99.90
23497;DHT22;11925;48.122;11.560;2023-06-04T14:54:06;16.20;99.90
23497;DHT22;11925;48.122;11.560;2023-06-04T14:56:35;16.20;99.90
23497;DHT22;11925;48.122;11.560;2023-06-04T14:59:03;16.20;99.90
23497;DHT22;11925;48.122;11.560;2023-06-04T15:01:36;16.20;99.90
23497;DHT22;11925;48.122;11.560;2023-06-04T15:04:05;16.20;99.90
23497;DHT22;11925;48.122;11.560;2023-06-04T15:06:34;16.20;99.90
23497;DHT22;11925;48.122;11.560;2023-06-04T15:09:03;16.20;99.90
23497;DHT22;11925;48.122;11.560;2023-06-04T15:11:32;16.20;99.90
23497;DHT22;11925;48.122;11.560;2023-06-04T15:14:01;16.20;99.90
23497;DHT22;11925;48.122;11.560;2023-06-04T15:16:29;16.20;99.90
23497;DHT22;11925;48.122;11.560;2023-06-04T15:18:58;16.20;99.90
23497;DHT22;11925;48.122;11.560;2023-06-04T15:21:26;16.20;99.90
23497;DHT22;11925;48.122;11.560;2023-06-04T15:23:55;16.20;99.90
23497;DHT22;11925;48.122;11.560;2023-06-04T15:26:23;16.20;99.90
23497;DHT22;11925;48.122;11.560;2023-06-04T15:28:55;16.20;99.90
23497;DHT22;11925;48.122;11.560;2023-06-04T15:31:24;16.20;99.90